sensor_id;sensor_type;location;lat;lon;timestamp;temperature;humidity
8002;DHT22;4046;48.774;8.732;2022-12-08T00:01:18;22.60;95.10
8002;DHT22;4046;48.774;8.732;2022-12-08T00:03:45;22.70;95.10
8002;DHT22;4046;48.774;8.732;2022-12-08T00:06:23;22.70;95.10
8002;DHT22;4046;48.774;8.732;2022-12-08T00:12:00;22.60;95.00
8002;DHT22;4046;48.774;8.732;2022-12-08T00:14:32;22.60;95.00
8002;DHT22;4046;48.774;8.732;2022-12-08T00:16:59;22.60;95.00
8002;DHT22;4046;48.774;8.732;2022-12-08T00:19:26;22.60;95.00
8002;DHT22;4046;48.774;8.732;2022-12-08T00:21:53;22.60;95.10
8002;DHT22;4046;48.774;8.732;2022-12-08T00:24:20;22.60;95.10
8002;DHT22;4046;48.774;8.732;2022-12-08T00:26:47;22.60;95.00
8002;DHT22;4046;48.774;8.732;2022-12-08T00:29:14;22.60;95.00
8002;DHT22;4046;48.774;8.732;2022-12-08T00:31:40;22.60;95.00
8002;DHT22;4046;48.774;8.732;2022-12-08T00:34:06;22.60;95.00
8002;DHT22;4046;48.774;8.732;2022-12-08T00:36:33;22.60;95.00
8002;DHT22;4046;48.774;8.732;2022-12-08T00:38:59;22.60;95.00
8002;DHT22;4046;48.774;8.732;2022-12-08T00:41:26;22.70;95.10
8002;DHT22;4046;48.774;8.732;2022-12-08T00:44:14;22.60;95.00
8002;DHT22;4046;48.774;8.732;2022-12-08T00:46:40;22.60;95.00
8002;DHT22;4046;48.774;8.732;2022-12-08T00:49:07;22.70;95.10
8002;DHT22;4046;48.774;8.732;2022-12-08T00:51:33;22.60;95.00
8002;DHT22;4046;48.774;8.732;2022-12-08T00:53:59;22.60;95.00
8002;DHT22;4046;48.774;8.732;2022-12-08T00:56:26;22.60;95.00
8002;DHT22;4046;48.774;8.732;2022-12-08T00:58:52;22.60;95.00
8002;DHT22;4046;48.774;8.732;2022-12-08T01:01:18;22.60;95.00
8002;DHT22;4046;48.774;8.732;2022-12-08T01:03:44;22.60;95.00
8002;DHT22;4046;48.774;8.732;2022-12-08T01:06:11;22.60;95.00
8002;DHT22;4046;48.774;8.732;2022-12-08T01:08:38;22.60;95.00
8002;DHT22;4046;48.774;8.732;2022-12-08T01:11:11;22.60;95.00
8002;DHT22;4046;48.774;8.732;2022-12-08T01:13:38;22.60;95.00
8002;DHT22;4046;48.774;8.732;2022-12-08T01:16:04;22.60;95.00
8002;DHT22;4046;48.774;8.732;2022-12-08T01:18:31;22.60;95.00
8002;DHT22;4046;48.774;8.732;2022-12-08T01:21:04;22.60;95.00
8002;DHT22;4046;48.774;8.732;2022-12-08T01:23:32;22.60;95.00
8002;DHT22;4046;48.774;8.732;2022-12-08T01:26:04;22.60;95.00
8002;DHT22;4046;48.774;8.732;2022-12-08T01:28:31;22.60;95.00
8002;DHT22;4046;48.774;8.732;2022-12-08T01:30:58;22.60;95.00
8002;DHT22;4046;48.774;8.732;2022-12-08T01:33:25;22.60;95.10
8002;DHT22;4046;48.774;8.732;2022-12-08T01:35:51;22.60;95.00
8002;DHT22;4046;48.774;8.732;2022-12-08T01:38:18;22.60;95.00
8002;DHT22;4046;48.774;8.732;2022-12-08T01:40:44;22.60;95.00
8002;DHT22;4046;48.774;8.732;2022-12-08T01:43:19;22.60;95.00
8002;DHT22;4046;48.774;8.732;2022-12-08T01:45:45;22.60;95.00
8002;DHT22;4046;48.774;8.732;2022-12-08T01:48:19;22.60;95.00
8002;DHT22;4046;48.774;8.732;2022-12-08T01:50:47;22.60;95.00
8002;DHT22;4046;48.774;8.732;2022-12-08T01:53:17;22.60;95.00
8002;DHT22;4046;48.774;8.732;2022-12-08T01:55:52;22.60;95.00
8002;DHT22;4046;48.774;8.732;2022-12-08T01:58:28;22.60;95.00
8002;DHT22;4046;48.774;8.732;2022-12-08T02:00:55;22.60;95.00
8002;DHT22;4046;48.774;8.732;2022-12-08T02:03:28;22.60;94.90
8002;DHT22;4046;48.774;8.732;2022-12-08T02:05:56;22.60;94.90
8002;DHT22;4046;48.774;8.732;2022-12-08T02:08:23;22.60;95.00
8002;DHT22;4046;48.774;8.732;2022-12-08T02:10:51;22.60;94.90
8002;DHT22;4046;48.774;8.732;2022-12-08T02:13:19;22.60;94.90
8002;DHT22;4046;48.774;8.732;2022-12-08T02:16:04;22.60;95.00
8002;DHT22;4046;48.774;8.732;2022-12-08T02:21:13;22.60;94.90
8002;DHT22;4046;48.774;8.732;2022-12-08T02:37:27;22.60;94.90
8002;DHT22;4046;48.774;8.732;2022-12-08T02:40:02;22.50;94.90
8002;DHT22;4046;48.774;8.732;2022-12-08T02:42:41;22.50;94.90
8002;DHT22;4046;48.774;8.732;2022-12-08T02:45:27;22.60;94.90
8002;DHT22;4046;48.774;8.732;2022-12-08T02:47:57;22.50;94.90
8002;DHT22;4046;48.774;8.732;2022-12-08T02:50:24;22.50;94.90
8002;DHT22;4046;48.774;8.732;2022-12-08T02:52:50;22.50;94.90
8002;DHT22;4046;48.774;8.732;2022-12-08T02:58:08;22.50;94.90
8002;DHT22;4046;48.774;8.732;2022-12-08T03:03:48;22.50;94.90
8002;DHT22;4046;48.774;8.732;2022-12-08T03:06:30;22.50;94.90
8002;DHT22;4046;48.774;8.732;2022-12-08T03:09:03;22.50;94.90
8002;DHT22;4046;48.774;8.732;2022-12-08T03:11:48;22.50;94.90
8002;DHT22;4046;48.774;8.732;2022-12-08T03:14:18;22.50;94.90
8002;DHT22;4046;48.774;8.732;2022-12-08T03:16:48;22.50;94.90
8002;DHT22;4046;48.774;8.732;2022-12-08T03:19:21;22.50;94.90
8002;DHT22;4046;48.774;8.732;2022-12-08T03:21:51;22.50;94.90
8002;DHT22;4046;48.774;8.732;2022-12-08T03:24:18;22.50;94.90
8002;DHT22;4046;48.774;8.732;2022-12-08T03:27:01;22.50;94.80
8002;DHT22;4046;48.774;8.732;2022-12-08T03:29:29;22.50;94.80
8002;DHT22;4046;48.774;8.732;2022-12-08T03:32:00;22.50;94.80
8002;DHT22;4046;48.774;8.732;2022-12-08T03:34:29;22.50;94.80
8002;DHT22;4046;48.774;8.732;2022-12-08T03:36:56;22.50;94.80
8002;DHT22;4046;48.774;8.732;2022-12-08T03:39:24;22.50;94.80
8002;DHT22;4046;48.774;8.732;2022-12-08T03:41:51;22.50;94.80
8002;DHT22;4046;48.774;8.732;2022-12-08T03:44:17;22.50;94.80
8002;DHT22;4046;48.774;8.732;2022-12-08T03:46:43;22.50;94.80
8002;DHT22;4046;48.774;8.732;2022-12-08T03:49:10;22.50;94.80
8002;DHT22;4046;48.774;8.732;2022-12-08T03:51:37;22.50;94.80
8002;DHT22;4046;48.774;8.732;2022-12-08T03:54:03;22.50;94.80
8002;DHT22;4046;48.774;8.732;2022-12-08T03:56:32;22.50;94.80
8002;DHT22;4046;48.774;8.732;2022-12-08T03:58:59;22.50;94.80
8002;DHT22;4046;48.774;8.732;2022-12-08T04:01:26;22.50;94.80
8002;DHT22;4046;48.774;8.732;2022-12-08T04:03:52;22.50;94.70
8002;DHT22;4046;48.774;8.732;2022-12-08T04:06:19;22.50;94.70
8002;DHT22;4046;48.774;8.732;2022-12-08T04:08:46;22.50;94.80
8002;DHT22;4046;48.774;8.732;2022-12-08T04:11:12;22.50;94.80
8002;DHT22;4046;48.774;8.732;2022-12-08T04:13:40;22.50;94.70
8002;DHT22;4046;48.774;8.732;2022-12-08T04:16:07;22.50;94.80
8002;DHT22;4046;48.774;8.732;2022-12-08T04:18:34;22.50;94.70
8002;DHT22;4046;48.774;8.732;2022-12-08T04:21:01;22.50;94.80
8002;DHT22;4046;48.774;8.732;2022-12-08T04:23:27;22.50;94.80
8002;DHT22;4046;48.774;8.732;2022-12-08T04:25:53;22.50;94.70
8002;DHT22;4046;48.774;8.732;2022-12-08T04:28:20;22.50;94.70
8002;DHT22;4046;48.774;8.732;2022-12-08T04:30:47;22.50;94.70
8002;DHT22;4046;48.774;8.732;2022-12-08T04:33:13;22.50;94.70
8002;DHT22;4046;48.774;8.732;2022-12-08T04:35:39;22.50;94.70
8002;DHT22;4046;48.774;8.732;2022-12-08T04:38:06;22.50;94.70
8002;DHT22;4046;48.774;8.732;2022-12-08T04:40:32;22.50;94.70
8002;DHT22;4046;48.774;8.732;2022-12-08T04:42:58;22.50;94.70
8002;DHT22;4046;48.774;8.732;2022-12-08T04:45:24;22.50;94.70
8002;DHT22;4046;48.774;8.732;2022-12-08T04:47:50;22.60;94.70
8002;DHT22;4046;48.774;8.732;2022-12-08T04:50:17;22.50;94.70
8002;DHT22;4046;48.774;8.732;2022-12-08T04:52:43;22.50;94.70
8002;DHT22;4046;48.774;8.732;2022-12-08T04:55:09;22.50;95.00
8002;DHT22;4046;48.774;8.732;2022-12-08T04:57:36;22.50;94.70
8002;DHT22;4046;48.774;8.732;2022-12-08T05:00:03;22.50;94.70
8002;DHT22;4046;48.774;8.732;2022-12-08T05:02:30;22.50;94.70
8002;DHT22;4046;48.774;8.732;2022-12-08T05:04:57;22.50;94.70
8002;DHT22;4046;48.774;8.732;2022-12-08T05:07:23;22.50;94.60
8002;DHT22;4046;48.774;8.732;2022-12-08T05:09:50;22.50;94.70
8002;DHT22;4046;48.774;8.732;2022-12-08T05:12:16;22.50;94.60
8002;DHT22;4046;48.774;8.732;2022-12-08T05:14:42;22.50;94.70
8002;DHT22;4046;48.774;8.732;2022-12-08T05:17:08;22.50;94.60
8002;DHT22;4046;48.774;8.732;2022-12-08T05:19:34;22.50;94.60
8002;DHT22;4046;48.774;8.732;2022-12-08T05:22:01;22.50;94.60
8002;DHT22;4046;48.774;8.732;2022-12-08T05:24:27;22.50;94.60
8002;DHT22;4046;48.774;8.732;2022-12-08T05:26:53;22.50;94.60
8002;DHT22;4046;48.774;8.732;2022-12-08T05:29:19;22.50;94.60
8002;DHT22;4046;48.774;8.732;2022-12-08T05:31:45;22.50;94.60
8002;DHT22;4046;48.774;8.732;2022-12-08T05:34:12;22.50;94.60
8002;DHT22;4046;48.774;8.732;2022-12-08T05:36:38;22.50;94.60
8002;DHT22;4046;48.774;8.732;2022-12-08T05:39:04;22.50;94.60
8002;DHT22;4046;48.774;8.732;2022-12-08T05:41:30;22.50;94.60
8002;DHT22;4046;48.774;8.732;2022-12-08T05:43:57;22.50;94.60
8002;DHT22;4046;48.774;8.732;2022-12-08T05:46:23;22.50;94.60
8002;DHT22;4046;48.774;8.732;2022-12-08T05:48:49;22.50;94.60
8002;DHT22;4046;48.774;8.732;2022-12-08T05:51:18;22.50;94.60
8002;DHT22;4046;48.774;8.732;2022-12-08T05:53:46;22.50;94.60
8002;DHT22;4046;48.774;8.732;2022-12-08T05:56:12;22.50;94.60
8002;DHT22;4046;48.774;8.732;2022-12-08T05:58:39;22.50;94.60
8002;DHT22;4046;48.774;8.732;2022-12-08T06:01:05;22.50;94.60
8002;DHT22;4046;48.774;8.732;2022-12-08T06:03:32;22.50;94.60
8002;DHT22;4046;48.774;8.732;2022-12-08T06:05:58;22.50;94.60
8002;DHT22;4046;48.774;8.732;2022-12-08T06:08:24;22.50;94.60
8002;DHT22;4046;48.774;8.732;2022-12-08T06:10:51;22.50;94.60
8002;DHT22;4046;48.774;8.732;2022-12-08T06:13:17;22.50;94.50
8002;DHT22;4046;48.774;8.732;2022-12-08T06:15:43;22.50;94.60
8002;DHT22;4046;48.774;8.732;2022-12-08T06:18:10;22.50;94.60
8002;DHT22;4046;48.774;8.732;2022-12-08T06:20:36;22.50;94.50
8002;DHT22;4046;48.774;8.732;2022-12-08T06:23:02;22.50;94.50
8002;DHT22;4046;48.774;8.732;2022-12-08T06:25:29;22.50;94.50
8002;DHT22;4046;48.774;8.732;2022-12-08T06:27:55;22.50;94.50
8002;DHT22;4046;48.774;8.732;2022-12-08T06:30:21;22.50;94.50
8002;DHT22;4046;48.774;8.732;2022-12-08T06:32:47;22.50;94.50
8002;DHT22;4046;48.774;8.732;2022-12-08T06:35:13;22.50;94.50
8002;DHT22;4046;48.774;8.732;2022-12-08T06:37:40;22.50;94.50
8002;DHT22;4046;48.774;8.732;2022-12-08T06:40:07;22.50;94.50
8002;DHT22;4046;48.774;8.732;2022-12-08T06:42:34;22.50;94.50
8002;DHT22;4046;48.774;8.732;2022-12-08T06:45:10;22.50;94.50
8002;DHT22;4046;48.774;8.732;2022-12-08T06:47:36;22.50;94.50
8002;DHT22;4046;48.774;8.732;2022-12-08T06:50:04;22.50;94.50
8002;DHT22;4046;48.774;8.732;2022-12-08T06:52:31;22.50;94.50
8002;DHT22;4046;48.774;8.732;2022-12-08T06:54:57;22.50;94.50
8002;DHT22;4046;48.774;8.732;2022-12-08T06:57:23;22.50;94.80
8002;DHT22;4046;48.774;8.732;2022-12-08T06:59:50;22.40;94.40
8002;DHT22;4046;48.774;8.732;2022-12-08T07:02:16;22.50;94.50
8002;DHT22;4046;48.774;8.732;2022-12-08T07:04:43;22.50;94.80
8002;DHT22;4046;48.774;8.732;2022-12-08T07:07:09;22.50;94.50
8002;DHT22;4046;48.774;8.732;2022-12-08T07:09:35;22.40;94.40
8002;DHT22;4046;48.774;8.732;2022-12-08T07:12:03;22.50;94.50
8002;DHT22;4046;48.774;8.732;2022-12-08T07:14:29;22.50;94.40
8002;DHT22;4046;48.774;8.732;2022-12-08T07:16:55;22.50;94.40
8002;DHT22;4046;48.774;8.732;2022-12-08T07:19:21;22.40;94.40
8002;DHT22;4046;48.774;8.732;2022-12-08T07:21:48;22.50;94.40
8002;DHT22;4046;48.774;8.732;2022-12-08T07:24:14;22.50;94.40
8002;DHT22;4046;48.774;8.732;2022-12-08T07:26:40;22.50;94.40
8002;DHT22;4046;48.774;8.732;2022-12-08T07:29:08;22.50;94.40
8002;DHT22;4046;48.774;8.732;2022-12-08T07:31:34;22.50;94.40
8002;DHT22;4046;48.774;8.732;2022-12-08T07:34:00;22.50;94.40
8002;DHT22;4046;48.774;8.732;2022-12-08T07:36:27;22.50;94.40
8002;DHT22;4046;48.774;8.732;2022-12-08T07:38:53;22.50;94.40
8002;DHT22;4046;48.774;8.732;2022-12-08T07:41:21;22.50;94.40
8002;DHT22;4046;48.774;8.732;2022-12-08T07:43:48;22.50;94.30
8002;DHT22;4046;48.774;8.732;2022-12-08T07:46:17;22.50;94.30
8002;DHT22;4046;48.774;8.732;2022-12-08T07:48:44;22.50;94.30
8002;DHT22;4046;48.774;8.732;2022-12-08T07:51:11;22.60;94.30
8002;DHT22;4046;48.774;8.732;2022-12-08T07:53:39;22.60;94.30
8002;DHT22;4046;48.774;8.732;2022-12-08T07:56:07;22.50;94.30
8002;DHT22;4046;48.774;8.732;2022-12-08T07:58:34;22.50;94.30
8002;DHT22;4046;48.774;8.732;2022-12-08T08:01:00;22.50;94.30
8002;DHT22;4046;48.774;8.732;2022-12-08T08:03:26;22.60;94.30
8002;DHT22;4046;48.774;8.732;2022-12-08T08:05:52;22.60;94.30
8002;DHT22;4046;48.774;8.732;2022-12-08T08:08:19;22.60;94.30
8002;DHT22;4046;48.774;8.732;2022-12-08T08:10:45;22.60;94.30
8002;DHT22;4046;48.774;8.732;2022-12-08T08:13:12;22.60;94.30
8002;DHT22;4046;48.774;8.732;2022-12-08T08:15:39;22.60;94.30
8002;DHT22;4046;48.774;8.732;2022-12-08T08:18:06;22.60;94.30
8002;DHT22;4046;48.774;8.732;2022-12-08T08:20:32;22.60;94.20
8002;DHT22;4046;48.774;8.732;2022-12-08T08:22:58;22.60;94.20
8002;DHT22;4046;48.774;8.732;2022-12-08T08:25:24;22.60;94.20
8002;DHT22;4046;48.774;8.732;2022-12-08T08:27:51;22.60;94.20
8002;DHT22;4046;48.774;8.732;2022-12-08T08:30:17;22.60;94.40
8002;DHT22;4046;48.774;8.732;2022-12-08T08:32:43;22.60;94.20
8002;DHT22;4046;48.774;8.732;2022-12-08T08:35:10;22.60;94.20
8002;DHT22;4046;48.774;8.732;2022-12-08T08:37:36;22.60;94.20
8002;DHT22;4046;48.774;8.732;2022-12-08T08:40:03;22.70;94.20
8002;DHT22;4046;48.774;8.732;2022-12-08T08:42:29;22.80;94.10
8002;DHT22;4046;48.774;8.732;2022-12-08T08:44:55;22.90;94.10
8002;DHT22;4046;48.774;8.732;2022-12-08T08:47:22;22.90;94.00
8002;DHT22;4046;48.774;8.732;2022-12-08T08:49:48;23.00;94.00
8002;DHT22;4046;48.774;8.732;2022-12-08T08:52:14;23.10;93.90
8002;DHT22;4046;48.774;8.732;2022-12-08T08:54:41;23.20;93.90
8002;DHT22;4046;48.774;8.732;2022-12-08T08:57:07;23.30;93.80
8002;DHT22;4046;48.774;8.732;2022-12-08T08:59:34;23.30;93.70
8002;DHT22;4046;48.774;8.732;2022-12-08T09:02:00;23.40;93.70
8002;DHT22;4046;48.774;8.732;2022-12-08T09:04:26;23.40;93.60
8002;DHT22;4046;48.774;8.732;2022-12-08T09:06:52;23.60;93.60
8002;DHT22;4046;48.774;8.732;2022-12-08T09:09:18;23.60;93.50
8002;DHT22;4046;48.774;8.732;2022-12-08T09:11:45;23.70;93.50
8002;DHT22;4046;48.774;8.732;2022-12-08T09:14:12;23.80;93.30
8002;DHT22;4046;48.774;8.732;2022-12-08T09:16:39;24.00;93.30
8002;DHT22;4046;48.774;8.732;2022-12-08T09:19:06;24.20;93.10
8002;DHT22;4046;48.774;8.732;2022-12-08T09:21:32;24.60;92.90
8002;DHT22;4046;48.774;8.732;2022-12-08T09:23:58;25.20;92.70
8002;DHT22;4046;48.774;8.732;2022-12-08T09:26:26;26.10;92.50
8002;DHT22;4046;48.774;8.732;2022-12-08T09:28:53;26.70;92.20
8002;DHT22;4046;48.774;8.732;2022-12-08T09:31:21;27.10;91.80
8002;DHT22;4046;48.774;8.732;2022-12-08T09:33:48;27.40;91.60
8002;DHT22;4046;48.774;8.732;2022-12-08T09:36:16;27.70;91.40
8002;DHT22;4046;48.774;8.732;2022-12-08T09:38:43;27.90;91.10
8002;DHT22;4046;48.774;8.732;2022-12-08T09:44:38;28.40;90.70
8002;DHT22;4046;48.774;8.732;2022-12-08T09:47:42;28.60;90.50
8002;DHT22;4046;48.774;8.732;2022-12-08T09:50:19;28.80;90.20
8002;DHT22;4046;48.774;8.732;2022-12-08T09:55:59;29.10;89.80
8002;DHT22;4046;48.774;8.732;2022-12-08T10:01:15;29.40;88.90
8002;DHT22;4046;48.774;8.732;2022-12-08T10:03:42;29.50;88.50
8002;DHT22;4046;48.774;8.732;2022-12-08T10:11:50;29.60;87.70
8002;DHT22;4046;48.774;8.732;2022-12-08T10:17:22;29.80;87.30
8002;DHT22;4046;48.774;8.732;2022-12-08T10:20:04;29.80;87.10
8002;DHT22;4046;48.774;8.732;2022-12-08T10:22:33;29.80;86.80
8002;DHT22;4046;48.774;8.732;2022-12-08T10:25:08;29.80;86.60
8002;DHT22;4046;48.774;8.732;2022-12-08T10:27:36;29.90;86.50
8002;DHT22;4046;48.774;8.732;2022-12-08T10:30:13;29.90;86.30
8002;DHT22;4046;48.774;8.732;2022-12-08T10:32:43;29.60;85.90
8002;DHT22;4046;48.774;8.732;2022-12-08T10:35:12;29.50;86.40
8002;DHT22;4046;48.774;8.732;2022-12-08T10:37:38;29.00;86.50
8002;DHT22;4046;48.774;8.732;2022-12-08T10:42:48;27.70;86.70
8002;DHT22;4046;48.774;8.732;2022-12-08T10:48:05;25.70;89.00
8002;DHT22;4046;48.774;8.732;2022-12-08T10:50:45;24.80;90.10
8002;DHT22;4046;48.774;8.732;2022-12-08T10:53:24;24.20;90.50
8002;DHT22;4046;48.774;8.732;2022-12-08T10:58:36;23.30;91.20
8002;DHT22;4046;48.774;8.732;2022-12-08T11:01:11;23.00;91.50
8002;DHT22;4046;48.774;8.732;2022-12-08T11:11:51;22.60;92.10
8002;DHT22;4046;48.774;8.732;2022-12-08T11:14:25;22.50;92.20
8002;DHT22;4046;48.774;8.732;2022-12-08T11:16:55;22.40;92.20
8002;DHT22;4046;48.774;8.732;2022-12-08T11:19:27;22.30;92.30
8002;DHT22;4046;48.774;8.732;2022-12-08T11:21:53;22.30;92.40
8002;DHT22;4046;48.774;8.732;2022-12-08T11:24:23;22.30;92.50
8002;DHT22;4046;48.774;8.732;2022-12-08T11:27:03;22.20;92.40
8002;DHT22;4046;48.774;8.732;2022-12-08T11:29:34;22.20;92.50
8002;DHT22;4046;48.774;8.732;2022-12-08T11:32:12;22.10;92.50
8002;DHT22;4046;48.774;8.732;2022-12-08T11:34:50;22.10;92.60
8002;DHT22;4046;48.774;8.732;2022-12-08T11:37:38;22.10;92.60
8002;DHT22;4046;48.774;8.732;2022-12-08T11:40:12;22.10;92.60
8002;DHT22;4046;48.774;8.732;2022-12-08T11:45:24;22.00;92.70
8002;DHT22;4046;48.774;8.732;2022-12-08T11:50:37;22.00;92.80
8002;DHT22;4046;48.774;8.732;2022-12-08T11:53:12;22.00;92.80
8002;DHT22;4046;48.774;8.732;2022-12-08T11:56:02;22.00;92.80
8002;DHT22;4046;48.774;8.732;2022-12-08T11:59:31;21.90;92.80
8002;DHT22;4046;48.774;8.732;2022-12-08T12:01:37;21.90;92.80
8002;DHT22;4046;48.774;8.732;2022-12-08T12:04:49;21.90;92.90
8002;DHT22;4046;48.774;8.732;2022-12-08T12:12:55;21.80;92.90
8002;DHT22;4046;48.774;8.732;2022-12-08T12:21:08;21.80;93.00
8002;DHT22;4046;48.774;8.732;2022-12-08T12:23:50;21.80;93.00
8002;DHT22;4046;48.774;8.732;2022-12-08T12:26:20;21.80;93.00
8002;DHT22;4046;48.774;8.732;2022-12-08T12:28:54;21.80;93.00
8002;DHT22;4046;48.774;8.732;2022-12-08T12:31:36;21.80;93.00
8002;DHT22;4046;48.774;8.732;2022-12-08T12:34:28;21.80;93.00
8002;DHT22;4046;48.774;8.732;2022-12-08T12:37:04;21.80;93.00
8002;DHT22;4046;48.774;8.732;2022-12-08T12:39:44;21.80;93.30
8002;DHT22;4046;48.774;8.732;2022-12-08T12:42:47;21.80;93.00
8002;DHT22;4046;48.774;8.732;2022-12-08T12:50:41;21.80;93.00
8002;DHT22;4046;48.774;8.732;2022-12-08T12:56:02;21.80;93.00
8002;DHT22;4046;48.774;8.732;2022-12-08T13:03:33;21.70;93.00
8002;DHT22;4046;48.774;8.732;2022-12-08T13:05:59;21.80;93.10
8002;DHT22;4046;48.774;8.732;2022-12-08T13:08:26;21.80;93.10
8002;DHT22;4046;48.774;8.732;2022-12-08T13:11:03;21.70;93.00
8002;DHT22;4046;48.774;8.732;2022-12-08T13:13:30;21.70;93.10
8002;DHT22;4046;48.774;8.732;2022-12-08T13:18:48;21.70;93.10
8002;DHT22;4046;48.774;8.732;2022-12-08T13:21:18;21.70;93.10
8002;DHT22;4046;48.774;8.732;2022-12-08T13:24:11;21.70;93.10
8002;DHT22;4046;48.774;8.732;2022-12-08T13:29:29;21.70;93.10
8002;DHT22;4046;48.774;8.732;2022-12-08T13:32:04;21.70;93.10
8002;DHT22;4046;48.774;8.732;2022-12-08T13:34:54;21.70;93.10
8002;DHT22;4046;48.774;8.732;2022-12-08T13:37:29;21.60;93.10
8002;DHT22;4046;48.774;8.732;2022-12-08T13:42:54;21.70;93.10
8002;DHT22;4046;48.774;8.732;2022-12-08T13:45:25;21.60;93.10
8002;DHT22;4046;48.774;8.732;2022-12-08T13:48:18;21.60;93.10
8002;DHT22;4046;48.774;8.732;2022-12-08T13:50:57;21.60;93.10
8002;DHT22;4046;48.774;8.732;2022-12-08T13:53:28;21.60;93.10
8002;DHT22;4046;48.774;8.732;2022-12-08T13:55:57;21.60;93.10
8002;DHT22;4046;48.774;8.732;2022-12-08T13:58:27;21.60;93.10
8002;DHT22;4046;48.774;8.732;2022-12-08T14:03:25;21.60;93.10
8002;DHT22;4046;48.774;8.732;2022-12-08T14:05:52;21.60;93.10
8002;DHT22;4046;48.774;8.732;2022-12-08T14:08:29;21.60;93.10
8002;DHT22;4046;48.774;8.732;2022-12-08T14:11:01;21.60;93.10
8002;DHT22;4046;48.774;8.732;2022-12-08T14:13:28;21.60;93.10
8002;DHT22;4046;48.774;8.732;2022-12-08T14:15:56;21.60;93.10
8002;DHT22;4046;48.774;8.732;2022-12-08T14:18:27;21.60;93.10
8002;DHT22;4046;48.774;8.732;2022-12-08T14:21:05;21.60;93.10
8002;DHT22;4046;48.774;8.732;2022-12-08T14:23:35;21.60;93.10
8002;DHT22;4046;48.774;8.732;2022-12-08T14:26:03;21.60;93.10
8002;DHT22;4046;48.774;8.732;2022-12-08T14:28:33;21.60;93.10
8002;DHT22;4046;48.774;8.732;2022-12-08T14:30:59;21.60;93.10
8002;DHT22;4046;48.774;8.732;2022-12-08T14:33:26;21.60;93.20
8002;DHT22;4046;48.774;8.732;2022-12-08T14:35:54;21.60;93.20
8002;DHT22;4046;48.774;8.732;2022-12-08T14:38:22;21.60;93.20
8002;DHT22;4046;48.774;8.732;2022-12-08T14:41:05;21.60;93.20
8002;DHT22;4046;48.774;8.732;2022-12-08T14:43:32;21.60;93.20
8002;DHT22;4046;48.774;8.732;2022-12-08T14:46:00;21.60;93.20
8002;DHT22;4046;48.774;8.732;2022-12-08T14:54:11;21.60;93.20
8002;DHT22;4046;48.774;8.732;2022-12-08T14:56:52;21.60;93.20
8002;DHT22;4046;48.774;8.732;2022-12-08T14:59:30;21.60;93.20
8002;DHT22;4046;48.774;8.732;2022-12-08T15:04:46;21.50;93.20
8002;DHT22;4046;48.774;8.732;2022-12-08T15:07:13;21.50;93.20
8002;DHT22;4046;48.774;8.732;2022-12-08T15:09:46;21.50;93.20
8002;DHT22;4046;48.774;8.732;2022-12-08T15:14:55;21.50;93.10
8002;DHT22;4046;48.774;8.732;2022-12-08T15:17:32;21.50;93.20
8002;DHT22;4046;48.774;8.732;2022-12-08T15:20:00;21.50;93.20
8002;DHT22;4046;48.774;8.732;2022-12-08T15:22:28;21.50;93.20
8002;DHT22;4046;48.774;8.732;2022-12-08T15:24:55;21.50;93.20
8002;DHT22;4046;48.774;8.732;2022-12-08T15:27:23;21.60;93.20
8002;DHT22;4046;48.774;8.732;2022-12-08T15:29:50;21.50;93.20
8002;DHT22;4046;48.774;8.732;2022-12-08T15:32:19;21.60;93.20
8002;DHT22;4046;48.774;8.732;2022-12-08T15:34:46;21.50;93.20
8002;DHT22;4046;48.774;8.732;2022-12-08T15:37:20;21.50;93.20
8002;DHT22;4046;48.774;8.732;2022-12-08T15:39:46;21.50;93.20
8002;DHT22;4046;48.774;8.732;2022-12-08T15:42:13;21.50;93.20
8002;DHT22;4046;48.774;8.732;2022-12-08T15:44:39;21.50;93.20
8002;DHT22;4046;48.774;8.732;2022-12-08T15:47:13;21.60;93.30
8002;DHT22;4046;48.774;8.732;2022-12-08T15:49:40;21.60;93.30
8002;DHT22;4046;48.774;8.732;2022-12-08T15:52:12;21.60;93.20
8002;DHT22;4046;48.774;8.732;2022-12-08T15:54:39;21.70;93.30
8002;DHT22;4046;48.774;8.732;2022-12-08T15:57:15;21.80;93.30
8002;DHT22;4046;48.774;8.732;2022-12-08T15:59:42;21.80;93.30
8002;DHT22;4046;48.774;8.732;2022-12-08T16:02:11;21.80;93.30
8002;DHT22;4046;48.774;8.732;2022-12-08T16:04:37;21.90;93.30
8002;DHT22;4046;48.774;8.732;2022-12-08T16:07:05;21.90;93.30
8002;DHT22;4046;48.774;8.732;2022-12-08T16:09:35;21.90;93.30
8002;DHT22;4046;48.774;8.732;2022-12-08T16:12:04;21.90;93.30
8002;DHT22;4046;48.774;8.732;2022-12-08T16:14:50;22.00;93.30
8002;DHT22;4046;48.774;8.732;2022-12-08T16:17:16;22.00;93.30
8002;DHT22;4046;48.774;8.732;2022-12-08T16:19:43;22.00;93.30
8002;DHT22;4046;48.774;8.732;2022-12-08T16:22:24;22.00;93.30
8002;DHT22;4046;48.774;8.732;2022-12-08T16:24:51;22.10;93.30
8002;DHT22;4046;48.774;8.732;2022-12-08T16:27:22;22.10;93.30
8002;DHT22;4046;48.774;8.732;2022-12-08T16:29:49;22.10;93.30
8002;DHT22;4046;48.774;8.732;2022-12-08T16:32:16;22.10;93.30
8002;DHT22;4046;48.774;8.732;2022-12-08T16:34:43;22.10;93.20
8002;DHT22;4046;48.774;8.732;2022-12-08T16:37:21;22.10;93.20
8002;DHT22;4046;48.774;8.732;2022-12-08T16:39:49;22.20;93.30
8002;DHT22;4046;48.774;8.732;2022-12-08T16:42:18;22.20;93.30
8002;DHT22;4046;48.774;8.732;2022-12-08T16:47:45;22.20;93.30
8002;DHT22;4046;48.774;8.732;2022-12-08T16:50:14;22.20;93.20
8002;DHT22;4046;48.774;8.732;2022-12-08T16:52:41;22.10;92.70
8002;DHT22;4046;48.774;8.732;2022-12-08T16:55:11;22.10;92.50
8002;DHT22;4046;48.774;8.732;2022-12-08T16:57:38;22.10;92.50
8002;DHT22;4046;48.774;8.732;2022-12-08T17:00:08;22.10;92.60
8002;DHT22;4046;48.774;8.732;2022-12-08T17:02:35;22.10;92.60
8002;DHT22;4046;48.774;8.732;2022-12-08T17:05:01;22.10;92.60
8002;DHT22;4046;48.774;8.732;2022-12-08T17:07:28;22.20;92.70
8002;DHT22;4046;48.774;8.732;2022-12-08T17:09:54;22.20;92.80
8002;DHT22;4046;48.774;8.732;2022-12-08T17:12:20;22.30;92.80
8002;DHT22;4046;48.774;8.732;2022-12-08T17:14:46;22.30;92.90
8002;DHT22;4046;48.774;8.732;2022-12-08T17:17:12;22.30;92.80
8002;DHT22;4046;48.774;8.732;2022-12-08T17:19:39;22.30;92.90
8002;DHT22;4046;48.774;8.732;2022-12-08T17:22:05;22.40;93.00
8002;DHT22;4046;48.774;8.732;2022-12-08T17:24:31;22.40;93.00
8002;DHT22;4046;48.774;8.732;2022-12-08T17:26:58;22.40;93.00
8002;DHT22;4046;48.774;8.732;2022-12-08T17:29:30;22.40;93.00
8002;DHT22;4046;48.774;8.732;2022-12-08T17:31:57;22.40;93.00
8002;DHT22;4046;48.774;8.732;2022-12-08T17:34:23;22.40;93.00
8002;DHT22;4046;48.774;8.732;2022-12-08T17:36:50;22.40;93.00
8002;DHT22;4046;48.774;8.732;2022-12-08T17:39:16;22.50;93.00
8002;DHT22;4046;48.774;8.732;2022-12-08T17:41:42;22.50;93.10
8002;DHT22;4046;48.774;8.732;2022-12-08T17:44:13;22.50;93.00
8002;DHT22;4046;48.774;8.732;2022-12-08T17:46:40;22.50;93.00
8002;DHT22;4046;48.774;8.732;2022-12-08T17:49:11;22.60;93.10
8002;DHT22;4046;48.774;8.732;2022-12-08T17:51:40;22.60;93.10
8002;DHT22;4046;48.774;8.732;2022-12-08T17:54:06;22.60;92.90
8002;DHT22;4046;48.774;8.732;2022-12-08T17:56:32;22.60;92.90
8002;DHT22;4046;48.774;8.732;2022-12-08T17:59:01;22.60;92.90
8002;DHT22;4046;48.774;8.732;2022-12-08T18:01:28;22.60;93.20
8002;DHT22;4046;48.774;8.732;2022-12-08T18:03:56;22.60;93.20
8002;DHT22;4046;48.774;8.732;2022-12-08T18:06:22;22.60;93.10
8002;DHT22;4046;48.774;8.732;2022-12-08T18:08:49;22.60;93.10
8002;DHT22;4046;48.774;8.732;2022-12-08T18:11:18;22.60;93.10